الصفحة الرئيسية
METAR-TAF:

METAR-TAF

مطار :

Rodrigues, موريشيوس

دائرة عرض: 19-41S, خط طول: 063-25E, ارتفاع: 58 متر

مراقبة الطقس الحالي

تاريخ ووقت الإصدار 24 دقيقة قبل الساعة 08:00UTC
ريح 18 عقدة من الشرق
درجة الحرارة 30°درجة مئوية
الرطوبة 75%
ضغط 1010 hPa
الرؤية 10 كم أو أكثر
غيوم قليلة على ارتفاع 1800 قدم

METAR: FIMR 310800Z 10018KT 9999 FEW018 30/25 Q1010

زمن: 12:24 (08:24 UTC)

توقعات

تاريخ ووقت الإصدار 3ساعات و 9 دقيقة قبل الساعة 05:15UTC
التوقعات صالحة من31 الساعة 06 UTC إلى 01 الساعة 00 UTC
ريح 18 عقدة من الشرق تتزايد حتى 30 عقدة
الرؤية 10 كم أو أكثر
غيوم متفرقة على ارتفاع 1700 قدم
نظرية الاحتمالات 30% :
مؤقت
من 31 الساعة 18 UTC إلى 01 الساعة 00 UTC
الرؤية: 7000 متر
غيوم مفككة على ارتفاع 1500 قدم
زخات من الأمطار الخفيفة

TAF: FIMR 310515Z 3106/0100 09018G30KT 9999 SCT017 PROB30 TEMPO 3118/0100 7000 -SHRA BKN015

أرصاد الطقس والتوقعات من أكثر من 4000 مطار (تقارير الطقس للمطار METAR والتنبؤ بالطقس بالمطارTAF).

المحطات المتاحة هي النقط الصفراء والحمراء على الخريطة.

حرك المؤشر فوق النقطة لمعرفة اسم المحطة.

ثم انقر لمعرفة أرصاد وتوقعات الطقس.

لتغيير الخارطة: اضغط على الأزرار الخضراء مع رمز الصليب الأسود للتكبير. على الزر الأخضر مع شرطة للتصغير، أو على الأسهم الخضراء للخرائط المجاورة.


METAR-TAF: